createdAt,value
2019-05-19T00:02:26.214Z,98727.92
2019-05-19T00:04:55.052Z,98729.34
2019-05-19T00:07:23.866Z,98729.59
2019-05-19T00:09:52.692Z,98741.53
2019-05-19T00:12:21.492Z,98739.73
2019-05-19T00:14:50.261Z,98745.00
2019-05-19T00:17:19.025Z,98731.45
2019-05-19T00:19:47.812Z,98736.67
2019-05-19T00:22:16.691Z,98733.65
2019-05-19T00:24:45.452Z,98728.70
2019-05-19T00:27:14.260Z,98724.14
2019-05-19T00:29:43.054Z,98725.20
2019-05-19T00:32:11.855Z,98724.92
2019-05-19T00:34:40.653Z,98728.92
2019-05-19T00:37:09.413Z,98726.20
2019-05-19T00:39:38.173Z,98724.96
2019-05-19T00:42:06.972Z,98721.03
2019-05-19T00:44:35.694Z,98727.85
2019-05-19T00:47:04.495Z,98723.40
2019-05-19T00:49:41.041Z,98725.77
2019-05-19T00:52:03.783Z,98729.67
2019-05-19T00:54:32.554Z,98733.36
2019-05-19T00:57:03.633Z,98735.48
2019-05-19T00:59:33.734Z,98737.57
2019-05-19T01:02:02.558Z,98738.31
2019-05-19T01:04:31.437Z,98729.20
2019-05-19T01:07:00.174Z,98733.85
2019-05-19T01:09:28.925Z,98738.13
2019-05-19T01:11:57.736Z,98737.95
2019-05-19T01:14:26.494Z,98742.77
2019-05-19T01:16:55.314Z,98738.80
2019-05-19T01:19:24.094Z,98741.19
2019-05-19T01:21:53.655Z,98737.88
2019-05-19T01:24:22.554Z,98733.42
2019-05-19T01:26:51.342Z,98733.42
2019-05-19T01:29:20.154Z,98738.53
2019-05-19T01:31:49.035Z,98737.69
2019-05-19T01:34:17.774Z,98736.47
2019-05-19T01:36:46.576Z,98735.87
2019-05-19T01:39:15.354Z,98728.95
2019-05-19T01:41:44.174Z,98719.86
2019-05-19T01:44:12.962Z,98718.83
2019-05-19T01:46:41.714Z,98724.84
2019-05-19T01:49:10.514Z,98712.86
2019-05-19T01:51:39.357Z,98715.36
2019-05-19T01:54:08.154Z,98717.77
2019-05-19T01:56:36.914Z,98715.52
2019-05-19T01:59:05.674Z,98721.63
2019-05-19T02:01:34.516Z,98718.70
2019-05-19T02:04:03.282Z,98725.56
2019-05-19T02:06:32.137Z,98723.30
2019-05-19T02:09:00.894Z,98728.54
2019-05-19T02:11:29.680Z,98727.57
2019-05-19T02:13:58.454Z,98731.54
2019-05-19T02:16:27.216Z,98731.17
2019-05-19T02:18:56.002Z,98727.79
2019-05-19T02:21:24.759Z,98721.80
2019-05-19T02:23:53.535Z,98722.23
2019-05-19T02:26:22.318Z,98720.31
2019-05-19T02:28:51.061Z,98722.58
2019-05-19T02:31:19.869Z,98724.03
2019-05-19T02:33:48.635Z,98726.79
2019-05-19T02:36:17.535Z,98728.42
2019-05-19T02:38:46.301Z,98725.56
2019-05-19T02:41:17.595Z,98734.46
2019-05-19T02:43:48.095Z,98722.78
2019-05-19T02:46:17.536Z,98727.33
2019-05-19T02:48:47.074Z,98727.13
2019-05-19T02:51:19.336Z,98720.30
2019-05-19T02:53:49.100Z,98720.78
2019-05-19T02:56:18.324Z,98719.35
2019-05-19T02:58:47.776Z,98721.14
2019-05-19T03:01:16.574Z,98724.54
2019-05-19T03:03:45.382Z,98715.50
2019-05-19T03:06:14.137Z,98712.27
2019-05-19T03:08:42.914Z,98722.29
2019-05-19T03:11:11.696Z,98726.91
2019-05-19T03:13:40.494Z,98726.63
2019-05-19T03:16:09.276Z,98737.11
2019-05-19T03:18:38.035Z,98733.23
2019-05-19T03:21:10.881Z,98729.73
2019-05-19T03:23:37.314Z,98744.58
2019-05-19T03:26:06.156Z,98745.78
2019-05-19T03:28:34.897Z,98741.58
2019-05-19T03:31:14.126Z,98735.13
2019-05-19T03:33:44.435Z,98740.80
2019-05-19T03:36:13.197Z,98740.63
2019-05-19T03:38:42.015Z,98741.50
2019-05-19T03:41:10.787Z,98742.19
2019-05-19T03:43:39.538Z,98744.45
2019-05-19T03:46:08.434Z,98736.73
2019-05-19T03:48:37.316Z,98739.89
2019-05-19T03:51:06.134Z,98738.58
2019-05-19T03:53:34.876Z,98746.19
2019-05-19T03:56:03.644Z,98748.03
2019-05-19T03:58:32.442Z,98753.53
2019-05-19T04:01:01.319Z,98757.98
2019-05-19T04:03:30.134Z,98765.11
2019-05-19T04:05:58.877Z,98758.95
2019-05-19T04:08:27.714Z,98756.47
2019-05-19T04:10:56.514Z,98746.88
2019-05-19T04:13:25.254Z,98743.58
2019-05-19T04:15:54.072Z,98744.34
2019-05-19T04:18:22.836Z,98736.33
2019-05-19T04:20:51.655Z,98740.22
2019-05-19T04:23:20.441Z,98740.08
2019-05-19T04:25:49.197Z,98737.98
2019-05-19T04:28:18.015Z,98734.56
2019-05-19T04:30:46.815Z,98730.95
2019-05-19T04:33:15.655Z,98727.16
2019-05-19T04:35:44.540Z,98730.03
2019-05-19T04:38:13.395Z,98731.32
2019-05-19T04:40:43.406Z,98737.65
2019-05-19T04:43:12.138Z,98744.75
2019-05-19T04:45:40.972Z,98740.94
2019-05-19T04:48:09.975Z,98735.80
2019-05-19T04:50:38.833Z,98731.86
2019-05-19T04:53:07.616Z,98734.73
2019-05-19T04:55:36.376Z,98731.06
2019-05-19T04:58:05.174Z,98728.17
2019-05-19T05:00:33.956Z,98732.22
2019-05-19T05:03:02.676Z,98727.70
2019-05-19T05:05:31.435Z,98722.67
2019-05-19T05:08:00.198Z,98726.80
2019-05-19T05:10:29.034Z,98724.61
2019-05-19T05:12:57.756Z,98730.45
2019-05-19T05:15:26.534Z,98726.13
2019-05-19T05:17:55.335Z,98727.09
2019-05-19T05:20:24.114Z,98725.88
2019-05-19T05:22:52.918Z,98721.98
2019-05-19T05:25:21.654Z,98718.63
2019-05-19T05:27:50.474Z,98723.14
2019-05-19T05:30:19.241Z,98720.16
2019-05-19T05:32:48.015Z,98708.38
2019-05-19T05:35:16.816Z,98707.37
2019-05-19T05:37:45.635Z,98711.29
2019-05-19T05:40:14.415Z,98713.77
2019-05-19T05:42:43.249Z,98710.66
2019-05-19T05:45:12.479Z,98711.53
2019-05-19T05:47:41.276Z,98712.02
2019-05-19T05:50:10.343Z,98710.33
2019-05-19T05:52:39.349Z,98707.48
2019-05-19T05:55:08.194Z,98710.39
2019-05-19T05:57:36.956Z,98711.13
2019-05-19T06:00:08.790Z,98704.59
2019-05-19T06:02:37.735Z,98703.36
2019-05-19T06:05:08.017Z,98710.48
2019-05-19T06:07:36.791Z,98702.50
2019-05-19T06:10:07.552Z,98703.44
2019-05-19T06:12:36.312Z,98705.45
2019-05-19T06:15:05.671Z,98704.80
2019-05-19T06:17:34.496Z,98696.03
2019-05-19T06:20:04.251Z,98692.72
2019-05-19T06:22:33.474Z,98689.61
2019-05-19T06:25:02.357Z,98688.33
2019-05-19T06:27:31.472Z,98688.85
2019-05-19T06:30:00.333Z,98688.64
2019-05-19T06:32:30.672Z,98686.30
2019-05-19T06:34:59.505Z,98683.75
2019-05-19T06:37:28.272Z,98688.98
2019-05-19T06:39:57.052Z,98685.61
2019-05-19T06:42:25.893Z,98681.45
2019-05-19T06:44:54.659Z,98679.39
2019-05-19T06:47:23.444Z,98683.08
2019-05-19T06:49:52.227Z,98676.58
2019-05-19T06:52:21.014Z,98677.16
2019-05-19T06:54:49.857Z,98682.40
2019-05-19T06:57:18.605Z,98683.47
2019-05-19T06:59:47.372Z,98679.93
2019-05-19T07:02:16.194Z,98685.01
2019-05-19T07:04:45.011Z,98680.16
2019-05-19T07:07:13.865Z,98681.14
2019-05-19T07:09:55.967Z,98679.01
2019-05-19T07:12:13.193Z,98680.41
2019-05-19T07:14:41.953Z,98679.58
2019-05-19T07:17:10.737Z,98679.20
2019-05-19T07:19:39.533Z,98672.87
2019-05-19T07:22:08.291Z,98670.41
2019-05-19T07:24:37.053Z,98675.58
2019-05-19T07:27:05.851Z,98672.95
2019-05-19T07:29:34.575Z,98661.70
2019-05-19T07:32:03.412Z,98667.25
2019-05-19T07:34:32.313Z,98668.02
2019-05-19T07:37:01.153Z,98669.64
2019-05-19T07:39:29.954Z,98672.63
2019-05-19T07:41:58.693Z,98667.45
2019-05-19T07:44:27.492Z,98664.32
2019-05-19T07:46:56.255Z,98661.38
2019-05-19T07:49:25.074Z,98659.11
2019-05-19T07:51:53.814Z,98656.85
2019-05-19T07:54:22.565Z,98657.42
2019-05-19T07:56:51.330Z,98659.20
2019-05-19T07:59:20.106Z,98654.34
2019-05-19T08:01:48.911Z,98656.80
2019-05-19T08:04:17.656Z,98658.43
2019-05-19T08:06:46.388Z,98655.10
2019-05-19T08:09:15.173Z,98664.59
2019-05-19T08:11:44.032Z,98659.89
2019-05-19T08:14:12.808Z,98659.12
2019-05-19T08:16:41.593Z,98662.14
2019-05-19T08:19:10.412Z,98660.22
2019-05-19T08:21:39.151Z,98651.09
2019-05-19T08:24:07.912Z,98650.98
2019-05-19T08:26:36.694Z,98659.70
2019-05-19T08:29:05.496Z,98653.79
2019-05-19T08:31:34.293Z,98654.94
2019-05-19T08:34:03.106Z,98656.21
2019-05-19T08:36:31.976Z,98658.41
2019-05-19T08:39:00.752Z,98658.63
2019-05-19T08:41:29.531Z,98652.59
2019-05-19T08:43:58.311Z,98655.66
2019-05-19T08:46:27.157Z,98659.87
2019-05-19T08:48:58.482Z,98647.88
2019-05-19T08:51:26.495Z,98653.59
2019-05-19T08:53:55.334Z,98655.08
2019-05-19T08:56:24.114Z,98652.37
2019-05-19T08:58:52.934Z,98657.92
2019-05-19T09:01:21.716Z,98646.23
2019-05-19T09:03:50.555Z,98649.72
2019-05-19T09:06:19.315Z,98647.09
2019-05-19T09:08:48.205Z,98646.25
2019-05-19T09:11:16.996Z,98641.94
2019-05-19T09:13:45.998Z,98640.83
2019-05-19T09:16:14.874Z,98632.23
2019-05-19T09:18:43.616Z,98630.08
2019-05-19T09:21:12.382Z,98633.41
2019-05-19T09:23:41.155Z,98628.33
2019-05-19T09:26:09.935Z,98621.72
2019-05-19T09:28:38.721Z,98627.25
2019-05-19T09:31:07.475Z,98616.55
2019-05-19T09:33:36.293Z,98617.45
2019-05-19T09:36:05.934Z,98615.75
2019-05-19T09:38:34.663Z,98624.03
2019-05-19T09:41:03.553Z,98624.34
2019-05-19T09:43:32.291Z,98622.23
2019-05-19T09:46:01.113Z,98615.53
2019-05-19T09:48:29.863Z,98621.16
2019-05-19T09:50:58.712Z,98612.45
2019-05-19T09:53:33.436Z,98616.06
2019-05-19T09:56:02.152Z,98612.64
2019-05-19T09:58:30.993Z,98610.26
2019-05-19T10:00:59.712Z,98613.04
2019-05-19T10:03:28.472Z,98610.13
2019-05-19T10:05:57.231Z,98614.27
2019-05-19T10:08:26.240Z,98604.89
2019-05-19T10:11:14.155Z,98602.52
2019-05-19T10:13:42.892Z,98607.09
2019-05-19T10:16:11.653Z,98605.78
2019-05-19T10:18:40.474Z,98603.84
2019-05-19T10:21:09.215Z,98603.69
2019-05-19T10:23:38.012Z,98596.75
2019-05-19T10:26:06.772Z,98592.78
2019-05-19T10:28:35.544Z,98595.25
2019-05-19T10:31:04.333Z,98602.66
2019-05-19T10:33:33.092Z,98591.39
2019-05-19T10:36:01.844Z,98586.83
2019-05-19T10:38:30.619Z,98596.13
2019-05-19T10:40:59.433Z,98586.22
2019-05-19T10:43:28.211Z,98584.53
2019-05-19T10:46:00.083Z,98580.75
2019-05-19T10:48:28.862Z,98580.44
2019-05-19T10:50:57.615Z,98580.90
2019-05-19T10:53:26.435Z,98584.24
2019-05-19T10:55:55.194Z,98576.34
2019-05-19T10:58:23.960Z,98570.59
2019-05-19T11:00:52.737Z,98568.69
2019-05-19T11:03:21.520Z,98572.70
2019-05-19T11:05:50.334Z,98563.02
2019-05-19T11:08:19.155Z,98562.72
2019-05-19T11:10:47.976Z,98566.39
2019-05-19T11:13:16.759Z,98565.53
2019-05-19T11:15:45.534Z,98565.81
2019-05-19T11:18:14.395Z,98562.20
2019-05-19T11:20:43.155Z,98561.19
2019-05-19T11:23:11.966Z,98555.80
2019-05-19T11:25:51.083Z,98553.11
2019-05-19T11:28:11.206Z,98559.75
2019-05-19T11:30:39.999Z,98560.31
2019-05-19T11:33:08.817Z,98550.73
2019-05-19T11:35:37.614Z,98547.50
2019-05-19T11:38:06.374Z,98546.53
2019-05-19T11:40:35.178Z,98544.70
2019-05-19T11:43:03.935Z,98544.30
2019-05-19T11:45:32.795Z,98549.50
2019-05-19T11:48:01.575Z,98541.00
2019-05-19T11:50:30.301Z,98533.59
2019-05-19T11:52:59.115Z,98534.52
2019-05-19T11:55:27.855Z,98539.20
2019-05-19T11:57:56.675Z,98543.19
2019-05-19T12:00:25.438Z,98538.63
2019-05-19T12:02:54.194Z,98540.98
2019-05-19T12:05:23.066Z,98536.34
2019-05-19T12:07:51.855Z,98536.84
2019-05-19T12:10:20.685Z,98530.14
2019-05-19T12:12:49.435Z,98526.92
2019-05-19T12:15:18.374Z,98514.63
2019-05-19T12:17:47.155Z,98516.69
2019-05-19T12:20:16.014Z,98516.66
2019-05-19T12:22:44.837Z,98511.97
2019-05-19T12:25:14.015Z,98505.66
2019-05-19T12:27:42.775Z,98503.53
2019-05-19T12:30:14.474Z,98503.74
2019-05-19T12:32:43.254Z,98496.61
2019-05-19T12:35:12.374Z,98489.88
2019-05-19T12:37:41.135Z,98487.32
2019-05-19T12:40:10.095Z,98485.44
2019-05-19T12:42:38.894Z,98476.91
2019-05-19T12:45:11.438Z,98475.23
2019-05-19T12:47:40.367Z,98467.75
2019-05-19T12:50:09.815Z,98468.58
2019-05-19T12:52:38.567Z,98464.33
2019-05-19T12:55:07.708Z,98464.33
2019-05-19T12:57:36.595Z,98465.43
2019-05-19T13:00:06.635Z,98463.62
2019-05-19T13:02:37.990Z,98458.24
2019-05-19T13:05:07.006Z,98458.53
2019-05-19T13:07:35.775Z,98464.59
2019-05-19T13:10:08.514Z,98448.58
2019-05-19T13:12:37.318Z,98448.58
2019-05-19T13:15:07.598Z,98453.09
2019-05-19T13:17:36.416Z,98451.09
2019-05-19T13:20:05.841Z,98446.75
2019-05-19T13:22:34.635Z,98433.50
2019-05-19T13:25:03.835Z,98448.09
2019-05-19T13:27:32.595Z,98444.64
2019-05-19T13:30:01.501Z,98442.56
2019-05-19T13:32:30.274Z,98445.72
2019-05-19T13:34:59.035Z,98441.84
2019-05-19T13:37:27.836Z,98460.02
2019-05-19T13:39:56.599Z,98460.02
2019-05-19T13:42:25.450Z,98461.39
2019-05-19T13:44:54.194Z,98456.67
2019-05-19T13:47:22.995Z,98457.00
2019-05-19T13:49:51.775Z,98457.36
2019-05-19T13:52:20.636Z,98464.52
2019-05-19T13:54:49.451Z,98466.84
2019-05-19T13:57:18.234Z,98455.27
2019-05-19T13:59:47.017Z,98456.81
2019-05-19T14:02:15.795Z,98458.33
2019-05-19T14:04:44.580Z,98449.19
2019-05-19T14:07:13.355Z,98447.94
2019-05-19T14:09:42.117Z,98450.73
2019-05-19T14:12:10.929Z,98446.48
2019-05-19T14:14:39.679Z,98439.83
2019-05-19T14:17:08.434Z,98440.21
2019-05-19T14:19:37.292Z,98441.95
2019-05-19T14:22:06.112Z,98439.58
2019-05-19T14:24:34.871Z,98433.61
2019-05-19T14:27:03.672Z,98435.88
2019-05-19T14:29:32.514Z,98431.89
2019-05-19T14:32:01.312Z,98436.08
2019-05-19T14:34:30.097Z,98433.02
2019-05-19T14:36:58.855Z,98434.41
2019-05-19T14:39:27.637Z,98433.63
2019-05-19T14:41:57.994Z,98435.71
2019-05-19T14:44:26.775Z,98433.35
2019-05-19T14:46:55.573Z,98434.55
2019-05-19T14:49:24.356Z,98432.88
2019-05-19T14:51:53.136Z,98432.38
2019-05-19T14:54:21.916Z,98434.78
2019-05-19T14:56:50.694Z,98435.33
2019-05-19T14:59:19.548Z,98441.59
2019-05-19T15:01:48.359Z,98469.34
2019-05-19T15:04:17.122Z,98459.23
2019-05-19T15:06:45.875Z,98477.94
2019-05-19T15:09:14.655Z,98510.24
2019-05-19T15:11:43.455Z,98504.48
2019-05-19T15:14:12.312Z,98494.48
2019-05-19T15:16:41.075Z,98487.81
2019-05-19T15:19:09.894Z,98486.11
2019-05-19T15:21:38.695Z,98491.67
2019-05-19T15:24:07.463Z,98498.59
2019-05-19T15:26:36.275Z,98504.63
2019-05-19T15:29:05.035Z,98510.31
2019-05-19T15:31:33.762Z,98518.91
2019-05-19T15:34:02.554Z,98527.53
2019-05-19T15:36:31.323Z,98523.90
2019-05-19T15:39:00.113Z,98529.55
2019-05-19T15:41:28.875Z,98536.16
2019-05-19T15:43:57.637Z,98529.07
2019-05-19T15:46:26.412Z,98530.27
2019-05-19T15:48:55.173Z,98540.88
2019-05-19T15:51:28.976Z,98539.92
2019-05-19T15:53:54.493Z,98548.80
2019-05-19T15:56:23.313Z,98551.69
2019-05-19T15:58:52.089Z,98558.15
2019-05-19T16:01:20.860Z,98562.25
2019-05-19T16:03:49.724Z,98567.60
2019-05-19T16:06:18.517Z,98566.47
2019-05-19T16:08:47.293Z,98564.95
2019-05-19T16:11:16.052Z,98559.25
2019-05-19T16:13:44.832Z,98545.53
2019-05-19T16:16:13.652Z,98542.64
2019-05-19T16:18:42.411Z,98532.78
2019-05-19T16:21:11.172Z,98526.31
2019-05-19T16:23:39.972Z,98519.90
2019-05-19T16:26:08.754Z,98513.61
2019-05-19T16:28:37.575Z,98508.95
2019-05-19T16:31:06.534Z,98509.33
2019-05-19T16:33:35.375Z,98519.09
2019-05-19T16:36:07.575Z,98514.34
2019-05-19T16:38:34.636Z,98505.11
2019-05-19T16:41:03.411Z,98498.52
2019-05-19T16:43:32.150Z,98505.98
2019-05-19T16:46:00.913Z,98505.27
2019-05-19T16:48:29.720Z,98505.64
2019-05-19T16:50:58.504Z,98495.88
2019-05-19T16:53:27.315Z,98496.20
2019-05-19T16:55:56.077Z,98492.55
2019-05-19T16:58:24.874Z,98497.05
2019-05-19T17:00:53.655Z,98491.20
2019-05-19T17:03:22.594Z,98495.17
2019-05-19T17:05:51.363Z,98488.45
2019-05-19T17:08:20.135Z,98488.45
2019-05-19T17:10:48.935Z,98493.09
2019-05-19T17:13:17.776Z,98490.23
2019-05-19T17:15:46.555Z,98494.03
2019-05-19T17:18:15.321Z,98493.63
2019-05-19T17:20:44.095Z,98489.73
2019-05-19T17:23:12.877Z,98485.83
2019-05-19T17:25:41.674Z,98488.52
2019-05-19T17:28:10.454Z,98486.30
2019-05-19T17:30:39.282Z,98484.88
2019-05-19T17:33:08.074Z,98490.84
2019-05-19T17:35:36.921Z,98487.58
2019-05-19T17:38:05.696Z,98476.27
2019-05-19T17:40:34.594Z,98484.98
2019-05-19T17:43:03.498Z,98476.22
2019-05-19T17:45:32.275Z,98478.81
2019-05-19T17:48:09.734Z,98473.95
2019-05-19T17:50:35.755Z,98470.70
2019-05-19T17:53:04.955Z,98470.48
2019-05-19T17:55:35.168Z,98478.37
2019-05-19T17:58:04.678Z,98476.41
2019-05-19T18:00:41.434Z,98472.01
2019-05-19T18:03:10.654Z,98466.03
2019-05-19T18:05:39.615Z,98467.52
2019-05-19T18:08:08.460Z,98470.13
2019-05-19T18:10:37.383Z,98476.02
2019-05-19T18:13:06.231Z,98480.23
2019-05-19T18:15:35.792Z,98479.70
2019-05-19T18:18:04.712Z,98479.73
2019-05-19T18:20:33.600Z,98471.72
2019-05-19T18:23:02.487Z,98472.21
2019-05-19T18:25:31.441Z,98471.22
2019-05-19T18:28:00.355Z,98477.83
2019-05-19T18:30:29.255Z,98483.17
2019-05-19T18:32:58.081Z,98479.61
2019-05-19T18:35:26.915Z,98487.70
2019-05-19T18:37:55.815Z,98490.11
2019-05-19T18:40:24.695Z,98487.20
2019-05-19T18:42:53.485Z,98480.87
2019-05-19T18:45:22.345Z,98484.27
2019-05-19T18:47:51.201Z,98491.28
2019-05-19T18:50:20.835Z,98490.23
2019-05-19T18:52:49.735Z,98487.19
2019-05-19T18:55:18.583Z,98491.59
2019-05-19T18:57:47.395Z,98489.22
2019-05-19T19:00:19.415Z,98490.96
2019-05-19T19:02:48.235Z,98483.85
2019-05-19T19:05:17.135Z,98475.69
2019-05-19T19:07:50.545Z,98483.20
2019-05-19T19:10:20.114Z,98478.58
2019-05-19T19:12:49.075Z,98482.84
2019-05-19T19:15:18.075Z,98478.01
2019-05-19T19:17:46.915Z,98482.95
2019-05-19T19:20:16.085Z,98489.16
2019-05-19T19:22:44.901Z,98495.84
2019-05-19T19:25:13.895Z,98495.23
2019-05-19T19:27:42.674Z,98488.41
2019-05-19T19:30:11.917Z,98490.72
2019-05-19T19:32:40.795Z,98494.40
2019-05-19T19:35:10.195Z,98496.22
2019-05-19T19:37:39.074Z,98494.12
2019-05-19T19:40:08.637Z,98497.10
2019-05-19T19:42:37.417Z,98492.50
2019-05-19T19:45:06.859Z,98487.97
2019-05-19T19:47:35.635Z,98485.89
2019-05-19T19:50:06.475Z,98484.06
2019-05-19T19:52:35.339Z,98487.08
2019-05-19T19:55:04.876Z,98496.42
2019-05-19T19:57:33.652Z,98505.80
2019-05-19T20:00:02.480Z,98505.80
2019-05-19T20:02:31.317Z,98505.49
2019-05-19T20:05:00.154Z,98503.67
2019-05-19T20:07:28.915Z,98499.27
2019-05-19T20:09:57.717Z,98490.39
2019-05-19T20:12:26.550Z,98491.37
2019-05-19T20:14:55.390Z,98502.72
2019-05-19T20:17:24.156Z,98494.86
2019-05-19T20:19:53.990Z,98491.80
2019-05-19T20:22:22.830Z,98490.95
2019-05-19T20:24:51.790Z,98487.45
2019-05-19T20:27:20.590Z,98492.30
2019-05-19T20:29:49.469Z,98482.11
2019-05-19T20:32:18.268Z,98489.03
2019-05-19T20:34:47.028Z,98487.88
2019-05-19T20:37:15.790Z,98486.29
2019-05-19T20:39:44.589Z,98489.23
2019-05-19T20:42:13.429Z,98480.52
2019-05-19T20:44:42.188Z,98482.38
2019-05-19T20:47:11.067Z,98486.02
2019-05-19T20:49:39.947Z,98484.69
2019-05-19T20:52:08.747Z,98483.46
2019-05-19T20:54:37.668Z,98481.78
2019-05-19T20:57:06.468Z,98494.86
2019-05-19T20:59:35.269Z,98497.39
2019-05-19T21:02:04.077Z,98497.63
2019-05-19T21:04:32.839Z,98486.13
2019-05-19T21:07:01.636Z,98486.02
2019-05-19T21:09:30.439Z,98480.32
2019-05-19T21:11:59.166Z,98472.58
2019-05-19T21:14:27.998Z,98469.53
2019-05-19T21:16:56.798Z,98479.97
2019-05-19T21:19:25.637Z,98474.88
2019-05-19T21:21:54.437Z,98469.41
2019-05-19T21:24:23.238Z,98468.83
2019-05-19T21:26:52.077Z,98471.98
2019-05-19T21:29:20.838Z,98479.23
2019-05-19T21:31:49.716Z,98474.88
2019-05-19T21:34:18.520Z,98475.45
2019-05-19T21:36:47.317Z,98480.70
2019-05-19T21:39:16.077Z,98495.33
2019-05-19T21:41:44.916Z,98496.20
2019-05-19T21:44:13.815Z,98501.84
2019-05-19T21:46:42.640Z,98510.52
2019-05-19T21:49:11.481Z,98508.44
2019-05-19T21:51:40.277Z,98509.13
2019-05-19T21:54:09.078Z,98514.48
2019-05-19T21:56:37.876Z,98506.95
2019-05-19T21:59:06.649Z,98504.84
2019-05-19T22:01:35.639Z,98503.77
2019-05-19T22:04:04.516Z,98502.09
2019-05-19T22:06:34.836Z,98510.28
2019-05-19T22:09:04.756Z,98507.31
2019-05-19T22:11:33.584Z,98502.98
2019-05-19T22:14:02.477Z,98503.27
2019-05-19T22:16:31.263Z,98506.00
2019-05-19T22:19:00.116Z,98507.33
2019-05-19T22:21:28.886Z,98505.89
2019-05-19T22:23:57.679Z,98507.73
2019-05-19T22:26:26.687Z,98507.13
2019-05-19T22:28:55.437Z,98499.16
2019-05-19T22:31:36.263Z,98495.23
2019-05-19T22:33:58.198Z,98497.92
2019-05-19T22:36:26.996Z,98496.28
2019-05-19T22:38:55.838Z,98488.32
2019-05-19T22:41:24.596Z,98485.63
2019-05-19T22:43:53.366Z,98484.89
2019-05-19T22:46:22.204Z,98484.72
2019-05-19T22:48:51.038Z,98471.88
2019-05-19T22:51:22.690Z,98470.11
2019-05-19T22:53:50.357Z,98464.44
2019-05-19T22:56:19.198Z,98455.02
2019-05-19T22:58:47.918Z,98453.97
2019-05-19T23:01:16.719Z,98449.14
2019-05-19T23:03:45.527Z,98454.30
2019-05-19T23:06:14.358Z,98454.00
2019-05-19T23:08:43.237Z,98453.58
2019-05-19T23:11:11.998Z,98454.20
2019-05-19T23:13:40.804Z,98451.95
2019-05-19T23:16:09.679Z,98448.91
2019-05-19T23:18:38.518Z,98446.25
2019-05-19T23:21:07.320Z,98441.69
2019-05-19T23:23:36.089Z,98444.08
2019-05-19T23:26:04.962Z,98436.86
2019-05-19T23:28:33.757Z,98437.68
2019-05-19T23:31:02.597Z,98435.57
2019-05-19T23:33:31.405Z,98423.69
2019-05-19T23:36:00.197Z,98412.11
2019-05-19T23:38:28.982Z,98413.44
2019-05-19T23:40:57.760Z,98405.77
2019-05-19T23:43:26.638Z,98407.39
2019-05-19T23:45:55.437Z,98415.42
2019-05-19T23:48:24.236Z,98409.02
2019-05-19T23:50:53.150Z,98394.75
2019-05-19T23:53:21.997Z,98397.43
2019-05-19T23:55:50.796Z,98402.56
2019-05-19T23:58:19.558Z,98399.92
